In Rescue
 
Open Full Screen Window  High Contrast Mode
Wind Gusting 00 knots
05
March 04, 2021 2:48 AM CST
Weather Information
Wind Direction
  140 °
Wind Speed
  05 kt (6 mph)
Wind Gust
  00 kt (0 mph)
Altimeter
30.14 in
Visibility
10 SM
Temperature
00° C
32° F
Dewpoint
-02° C
28° F
Humidity
87%
1hr Rain Fall
00.00 in.
24hr Rain Fall
00.00 in.
Sky Condition
Clear
VFR

METAR KTKC 040848Z AUTO 14005KT 10SM CLR 00/M02 A3014 RMK AO2 T00041016

FAA Disclaimer: The data displayed is for advisory purposes only and is not to be used for flight planning or operations.